createdAt,value
2018-08-07T00:00:13.425Z,20.97
2018-08-07T00:01:13.413Z,21.01
2018-08-07T00:02:13.447Z,20.99
2018-08-07T00:03:13.388Z,21.03
2018-08-07T00:04:13.373Z,21.06
2018-08-07T00:05:13.360Z,20.98
2018-08-07T00:06:13.348Z,20.85
2018-08-07T00:07:13.347Z,20.85
2018-08-07T00:08:13.322Z,20.82
2018-08-07T00:09:13.316Z,20.85
2018-08-07T00:10:13.295Z,20.98
2018-08-07T00:11:13.281Z,20.98
2018-08-07T00:12:13.270Z,21.13
2018-08-07T00:13:13.255Z,21.25
2018-08-07T00:14:13.244Z,21.37
2018-08-07T00:15:13.232Z,21.43
2018-08-07T00:16:13.226Z,21.37
2018-08-07T00:17:13.207Z,21.27
2018-08-07T00:18:13.193Z,21.17
2018-08-07T00:19:13.180Z,21.10
2018-08-07T00:20:13.166Z,21.04
2018-08-07T00:21:13.151Z,20.98
2018-08-07T00:22:13.137Z,20.84
2018-08-07T00:23:13.124Z,20.88
2018-08-07T00:24:13.111Z,20.77
2018-08-07T00:25:13.100Z,20.70
2018-08-07T00:26:13.084Z,20.66
2018-08-07T00:27:13.073Z,20.66
2018-08-07T00:28:13.059Z,20.72
2018-08-07T00:29:13.051Z,20.79
2018-08-07T00:30:13.039Z,20.77
2018-08-07T00:31:13.026Z,20.84
2018-08-07T00:32:13.006Z,20.89
2018-08-07T00:33:12.992Z,20.80
2018-08-07T00:34:12.981Z,20.76
2018-08-07T00:35:12.974Z,20.87
2018-08-07T00:36:12.962Z,20.82
2018-08-07T00:37:12.942Z,20.87
2018-08-07T00:38:12.928Z,21.03
2018-08-07T00:39:12.913Z,20.94
2018-08-07T00:40:12.912Z,21.04
2018-08-07T00:41:12.886Z,21.13
2018-08-07T00:42:12.877Z,21.24
2018-08-07T00:43:12.859Z,21.24
2018-08-07T00:44:12.855Z,21.28
2018-08-07T00:45:12.836Z,21.10
2018-08-07T00:46:12.820Z,20.88
2018-08-07T00:47:12.813Z,20.79
2018-08-07T00:48:12.795Z,20.74
2018-08-07T00:49:12.786Z,20.73
2018-08-07T00:50:12.774Z,20.82
2018-08-07T00:51:12.753Z,20.69
2018-08-07T00:52:12.740Z,20.66
2018-08-07T00:53:12.725Z,20.62
2018-08-07T00:54:12.721Z,20.50
2018-08-07T00:55:12.702Z,20.41
2018-08-07T00:56:12.695Z,20.41
2018-08-07T00:57:12.673Z,20.39
2018-08-07T00:58:12.663Z,20.32
2018-08-07T00:59:12.646Z,20.47
2018-08-07T01:00:12.633Z,20.48
2018-08-07T01:01:12.622Z,20.57
2018-08-07T01:02:12.609Z,20.57
2018-08-07T01:03:12.592Z,20.67
2018-08-07T01:04:12.580Z,20.77
2018-08-07T01:05:12.568Z,20.84
2018-08-07T01:06:12.596Z,20.88
2018-08-07T01:07:12.545Z,20.95
2018-08-07T01:08:12.536Z,20.99
2018-08-07T01:09:12.518Z,21.10
2018-08-07T01:10:12.499Z,21.07
2018-08-07T01:11:12.488Z,21.06
2018-08-07T01:12:12.473Z,21.12
2018-08-07T01:13:12.461Z,21.12
2018-08-07T01:14:12.444Z,21.01
2018-08-07T01:15:12.431Z,20.87
2018-08-07T01:16:12.419Z,20.67
2018-08-07T01:17:12.404Z,20.36
2018-08-07T01:18:12.393Z,20.17
2018-08-07T01:19:12.378Z,20.01
2018-08-07T01:20:12.365Z,19.83
2018-08-07T01:21:12.354Z,19.86
2018-08-07T01:22:12.337Z,19.81
2018-08-07T01:23:12.326Z,19.87
2018-08-07T01:24:12.320Z,19.92
2018-08-07T01:25:12.298Z,20.10
2018-08-07T01:26:12.284Z,19.99
2018-08-07T01:27:12.277Z,20.13
2018-08-07T01:28:12.259Z,20.16
2018-08-07T01:29:12.245Z,20.26
2018-08-07T01:30:12.240Z,20.35
2018-08-07T01:31:12.222Z,20.50
2018-08-07T01:32:12.213Z,20.50
2018-08-07T01:33:12.190Z,20.50
2018-08-07T01:34:12.177Z,20.31
2018-08-07T01:35:12.165Z,20.33
2018-08-07T01:36:12.159Z,20.17
2018-08-07T01:37:12.147Z,19.95
2018-08-07T01:38:12.125Z,19.92
2018-08-07T01:39:12.109Z,19.84
2018-08-07T01:40:12.096Z,19.80
2018-08-07T01:41:12.082Z,19.84
2018-08-07T01:42:12.069Z,19.88
2018-08-07T01:43:12.101Z,19.92
2018-08-07T01:44:12.048Z,19.95
2018-08-07T01:45:12.037Z,19.94
2018-08-07T01:46:12.016Z,19.98
2018-08-07T01:47:12.001Z,19.99
2018-08-07T01:48:11.991Z,19.96
2018-08-07T01:49:11.974Z,19.87
2018-08-07T01:50:11.969Z,19.88
2018-08-07T01:51:11.951Z,19.86
2018-08-07T01:52:11.936Z,19.99
2018-08-07T01:53:11.920Z,20.06
2018-08-07T01:54:11.910Z,20.14
2018-08-07T01:55:11.892Z,20.13
2018-08-07T01:56:11.880Z,20.32
2018-08-07T01:57:11.864Z,20.42
2018-08-07T01:58:11.847Z,20.39
2018-08-07T01:59:11.835Z,20.26
2018-08-07T02:00:11.821Z,20.16
2018-08-07T02:01:11.806Z,20.08
2018-08-07T02:02:11.793Z,20.03
2018-08-07T02:03:11.780Z,20.20
2018-08-07T02:04:11.767Z,20.20
2018-08-07T02:05:11.752Z,20.23
2018-08-07T02:06:11.744Z,20.31
2018-08-07T02:07:11.726Z,20.42
2018-08-07T02:08:11.715Z,20.47
2018-08-07T02:09:11.697Z,20.59
2018-08-07T02:10:11.683Z,20.52
2018-08-07T02:11:11.675Z,20.43
2018-08-07T02:12:11.658Z,20.47
2018-08-07T02:13:11.656Z,20.42
2018-08-07T02:14:11.631Z,20.48
2018-08-07T02:15:11.616Z,20.21
2018-08-07T02:16:11.605Z,19.95
2018-08-07T02:17:11.588Z,19.83
2018-08-07T02:18:11.576Z,19.77
2018-08-07T02:19:11.561Z,19.87
2018-08-07T02:20:11.589Z,19.98
2018-08-07T02:21:11.539Z,19.95
2018-08-07T02:22:11.520Z,19.96
2018-08-07T02:23:11.510Z,20.01
2018-08-07T02:24:11.496Z,20.11
2018-08-07T02:25:11.480Z,20.16
2018-08-07T02:26:11.466Z,20.17
2018-08-07T02:27:11.452Z,20.28
2018-08-07T02:28:11.438Z,20.20
2018-08-07T02:29:11.433Z,20.17
2018-08-07T02:30:11.411Z,20.08
2018-08-07T02:31:11.399Z,20.06
2018-08-07T02:32:11.397Z,19.99
2018-08-07T02:33:11.369Z,20.16
2018-08-07T02:34:11.355Z,20.14
2018-08-07T02:35:11.342Z,20.29
2018-08-07T02:36:11.331Z,20.36
2018-08-07T02:37:11.312Z,20.52
2018-08-07T02:38:11.299Z,20.58
2018-08-07T02:39:11.288Z,20.61
2018-08-07T02:40:11.273Z,20.67
2018-08-07T02:41:11.259Z,20.73
2018-08-07T02:42:11.244Z,20.76
2018-08-07T02:43:11.231Z,20.67
2018-08-07T02:44:11.217Z,20.70
2018-08-07T02:45:11.206Z,20.64
2018-08-07T02:46:11.190Z,20.62
2018-08-07T02:47:11.176Z,20.80
2018-08-07T02:48:11.165Z,20.76
2018-08-07T02:49:11.147Z,20.85
2018-08-07T02:50:11.136Z,20.89
2018-08-07T02:51:11.122Z,20.79
2018-08-07T02:52:11.109Z,20.58
2018-08-07T02:53:11.096Z,20.35
2018-08-07T02:54:11.081Z,20.11
2018-08-07T02:55:11.071Z,19.87
2018-08-07T02:56:11.067Z,19.83
2018-08-07T02:57:11.043Z,19.81
2018-08-07T02:58:11.026Z,19.96
2018-08-07T02:59:11.011Z,19.94
2018-08-07T03:00:11.000Z,20.01
2018-08-07T03:01:10.987Z,20.08
2018-08-07T03:02:10.973Z,20.20
2018-08-07T03:03:10.961Z,20.14
2018-08-07T03:04:10.952Z,20.18
2018-08-07T03:05:10.935Z,20.11
2018-08-07T03:06:10.920Z,20.20
2018-08-07T03:07:10.902Z,20.24
2018-08-07T03:08:10.891Z,20.36
2018-08-07T03:09:10.878Z,20.32
2018-08-07T03:10:10.870Z,20.50
2018-08-07T03:11:10.848Z,20.50
2018-08-07T03:12:10.838Z,20.58
2018-08-07T03:13:10.825Z,20.59
2018-08-07T03:14:10.806Z,20.62
2018-08-07T03:15:10.794Z,20.64
2018-08-07T03:16:10.781Z,20.70
2018-08-07T03:17:10.774Z,20.67
2018-08-07T03:18:10.752Z,20.67
2018-08-07T03:19:10.736Z,20.79
2018-08-07T03:20:10.722Z,20.74
2018-08-07T03:21:10.709Z,20.74
2018-08-07T03:22:10.694Z,20.79
2018-08-07T03:23:10.685Z,20.77
2018-08-07T03:24:10.669Z,20.73
2018-08-07T03:25:10.653Z,20.67
2018-08-07T03:26:10.641Z,20.43
2018-08-07T03:27:10.625Z,20.35
2018-08-07T03:28:10.611Z,20.21
2018-08-07T03:29:10.609Z,20.10
2018-08-07T03:30:10.607Z,20.03
2018-08-07T03:31:10.569Z,20.02
2018-08-07T03:32:10.557Z,20.10
2018-08-07T03:33:10.544Z,20.06
2018-08-07T03:34:10.530Z,20.11
2018-08-07T03:35:10.518Z,20.16
2018-08-07T03:36:10.504Z,20.21
2018-08-07T03:37:10.490Z,20.24
2018-08-07T03:38:10.473Z,20.28
2018-08-07T03:39:10.459Z,20.24
2018-08-07T03:40:10.448Z,20.24
2018-08-07T03:41:10.430Z,20.14
2018-08-07T03:42:10.417Z,20.01
2018-08-07T03:43:10.405Z,19.81
2018-08-07T03:44:10.388Z,19.55
2018-08-07T03:45:10.376Z,19.46
2018-08-07T03:46:10.370Z,19.31
2018-08-07T03:47:10.348Z,19.29
2018-08-07T03:48:10.334Z,19.23
2018-08-07T03:49:10.388Z,19.28
2018-08-07T03:50:10.306Z,19.31
2018-08-07T03:51:10.301Z,19.37
2018-08-07T03:52:10.279Z,19.44
2018-08-07T03:53:10.341Z,19.54
2018-08-07T03:54:10.250Z,19.68
2018-08-07T03:55:10.240Z,19.69
2018-08-07T03:56:10.226Z,19.80
2018-08-07T03:57:10.210Z,19.80
2018-08-07T03:58:10.196Z,19.86
2018-08-07T03:59:10.291Z,19.96
2018-08-07T04:00:10.167Z,19.92
2018-08-07T04:01:10.152Z,20.02
2018-08-07T04:02:10.144Z,20.16
2018-08-07T04:03:10.125Z,20.23
2018-08-07T04:04:10.113Z,20.20
2018-08-07T04:05:10.099Z,20.33
2018-08-07T04:06:10.082Z,20.36
2018-08-07T04:07:10.070Z,20.41
2018-08-07T04:08:10.056Z,20.36
2018-08-07T04:09:10.041Z,20.36
2018-08-07T04:10:10.032Z,20.38
2018-08-07T04:11:10.018Z,20.39
2018-08-07T04:12:09.998Z,20.38
2018-08-07T04:13:09.984Z,20.26
2018-08-07T04:14:09.974Z,20.14
2018-08-07T04:15:09.957Z,20.11
2018-08-07T04:16:09.942Z,20.17
2018-08-07T04:17:09.938Z,20.14
2018-08-07T04:18:09.925Z,19.98
2018-08-07T04:19:09.906Z,19.62
2018-08-07T04:20:09.888Z,19.55
2018-08-07T04:21:09.877Z,19.61
2018-08-07T04:22:09.858Z,19.61
2018-08-07T04:23:09.854Z,19.63
2018-08-07T04:24:09.832Z,19.62
2018-08-07T04:25:09.818Z,19.61
2018-08-07T04:26:09.817Z,19.58
2018-08-07T04:27:09.791Z,19.77
2018-08-07T04:28:09.785Z,19.62
2018-08-07T04:29:09.761Z,19.61
2018-08-07T04:30:09.746Z,19.55
2018-08-07T04:31:09.735Z,19.54
2018-08-07T04:32:09.720Z,19.44
2018-08-07T04:33:09.706Z,19.31
2018-08-07T04:34:09.688Z,19.22
2018-08-07T04:35:09.676Z,19.14
2018-08-07T04:36:09.663Z,19.11
2018-08-07T04:37:09.655Z,19.07
2018-08-07T04:38:09.633Z,19.06
2018-08-07T04:39:09.628Z,19.08
2018-08-07T04:40:09.610Z,19.10
2018-08-07T04:41:09.590Z,19.21
2018-08-07T04:42:09.580Z,19.23
2018-08-07T04:43:09.562Z,19.31
2018-08-07T04:44:09.549Z,19.26
2018-08-07T04:45:09.534Z,19.40
2018-08-07T04:46:09.523Z,19.40
2018-08-07T04:47:09.514Z,19.44
2018-08-07T04:48:09.492Z,19.55
2018-08-07T04:49:09.478Z,19.51
2018-08-07T04:50:09.467Z,19.61
2018-08-07T04:51:09.448Z,19.65
2018-08-07T04:52:09.433Z,19.78
2018-08-07T04:53:09.419Z,19.84
2018-08-07T04:54:09.408Z,19.81
2018-08-07T04:55:09.394Z,19.80
2018-08-07T04:56:09.377Z,19.87
2018-08-07T04:57:09.370Z,19.80
2018-08-07T04:58:09.496Z,19.83
2018-08-07T04:59:09.333Z,19.84
2018-08-07T05:00:09.321Z,19.84
2018-08-07T05:01:09.305Z,19.80
2018-08-07T05:02:09.291Z,19.86
2018-08-07T05:03:09.277Z,19.95
2018-08-07T05:04:09.267Z,19.88
2018-08-07T05:05:09.248Z,19.92
2018-08-07T05:06:09.235Z,19.96
2018-08-07T05:07:09.224Z,20.08
2018-08-07T05:08:09.207Z,20.05
2018-08-07T05:09:09.206Z,20.01
2018-08-07T05:10:09.180Z,20.16
2018-08-07T05:11:09.167Z,20.13
2018-08-07T05:12:09.153Z,20.26
2018-08-07T05:13:09.135Z,20.32
2018-08-07T05:14:09.136Z,20.29
2018-08-07T05:15:09.107Z,20.36
2018-08-07T05:16:09.092Z,20.35
2018-08-07T05:17:09.078Z,20.51
2018-08-07T05:18:09.063Z,20.47
2018-08-07T05:19:09.050Z,20.52
2018-08-07T05:20:09.036Z,20.58
2018-08-07T05:21:09.021Z,20.51
2018-08-07T05:22:09.016Z,20.50
2018-08-07T05:23:08.992Z,20.58
2018-08-07T05:24:08.978Z,20.58
2018-08-07T05:25:08.962Z,20.57
2018-08-07T05:26:08.949Z,20.54
2018-08-07T05:27:08.936Z,20.58
2018-08-07T05:28:08.920Z,20.61
2018-08-07T05:29:08.917Z,20.66
2018-08-07T05:30:08.915Z,20.69
2018-08-07T05:31:08.879Z,20.79
2018-08-07T05:32:08.866Z,20.69
2018-08-07T05:33:08.853Z,20.80
2018-08-07T05:34:08.835Z,20.82
2018-08-07T05:35:08.822Z,20.89
2018-08-07T05:36:08.814Z,20.92
2018-08-07T05:37:08.794Z,20.97
2018-08-07T05:38:08.782Z,20.97
2018-08-07T05:39:08.767Z,21.06
2018-08-07T05:40:08.762Z,21.07
2018-08-07T05:41:08.750Z,21.16
2018-08-07T05:42:08.728Z,21.17
2018-08-07T05:43:08.733Z,21.19
2018-08-07T05:44:08.696Z,21.28
2018-08-07T05:45:08.685Z,21.32
2018-08-07T05:46:08.669Z,21.37
2018-08-07T05:47:08.657Z,21.46
2018-08-07T05:48:08.644Z,21.46
2018-08-07T05:49:08.626Z,21.49
2018-08-07T05:50:08.672Z,21.56
2018-08-07T05:51:09.018Z,21.54
2018-08-07T05:52:08.585Z,21.59
2018-08-07T05:53:08.572Z,21.64
2018-08-07T05:54:08.558Z,21.56
2018-08-07T05:55:08.580Z,21.71
2018-08-07T05:56:08.535Z,21.72
2018-08-07T05:57:08.521Z,21.69
2018-08-07T05:58:08.503Z,21.74
2018-08-07T05:59:08.489Z,21.80
2018-08-07T06:00:08.476Z,21.91
2018-08-07T06:01:08.464Z,21.90
2018-08-07T06:02:08.447Z,22.00
2018-08-07T06:03:08.435Z,21.96
2018-08-07T06:04:08.423Z,22.06
2018-08-07T06:05:08.407Z,22.05
2018-08-07T06:06:08.397Z,22.15
2018-08-07T06:07:08.387Z,22.07
2018-08-07T06:08:08.365Z,22.12
2018-08-07T06:09:08.354Z,22.21
2018-08-07T06:10:08.343Z,22.24
2018-08-07T06:11:08.329Z,22.24
2018-08-07T06:12:08.313Z,22.24
2018-08-07T06:13:08.298Z,22.25
2018-08-07T06:14:08.289Z,22.37
2018-08-07T06:15:08.271Z,22.40
2018-08-07T06:16:08.261Z,22.46
2018-08-07T06:17:08.246Z,22.52
2018-08-07T06:18:08.230Z,22.57
2018-08-07T06:19:08.237Z,22.57
2018-08-07T06:20:08.204Z,22.58
2018-08-07T06:21:08.190Z,22.65
2018-08-07T06:22:08.177Z,22.72
2018-08-07T06:23:08.166Z,22.80
2018-08-07T06:24:08.154Z,22.86
2018-08-07T06:25:08.140Z,22.86
2018-08-07T06:26:08.126Z,22.94
2018-08-07T06:27:08.111Z,22.94
2018-08-07T06:28:08.107Z,23.05
2018-08-07T06:29:08.082Z,23.10
2018-08-07T06:30:08.070Z,23.09
2018-08-07T06:31:08.055Z,23.07
2018-08-07T06:32:08.044Z,23.15
2018-08-07T06:33:08.031Z,23.15
2018-08-07T06:34:08.019Z,23.17
2018-08-07T06:35:08.002Z,23.19
2018-08-07T06:36:07.994Z,23.23
2018-08-07T06:37:07.979Z,23.33
2018-08-07T06:38:07.968Z,23.39
2018-08-07T06:39:07.955Z,23.38
2018-08-07T06:40:07.941Z,23.42
2018-08-07T06:41:07.925Z,23.47
2018-08-07T06:42:07.913Z,23.60
2018-08-07T06:43:07.900Z,23.68
2018-08-07T06:44:07.885Z,23.66
2018-08-07T06:45:07.875Z,23.75
2018-08-07T06:46:07.859Z,23.79
2018-08-07T06:47:07.846Z,23.83
2018-08-07T06:48:07.881Z,23.85
2018-08-07T06:49:07.819Z,24.00
2018-08-07T06:50:07.818Z,24.02
2018-08-07T06:51:07.797Z,24.02
2018-08-07T06:52:07.782Z,24.06
2018-08-07T06:53:07.768Z,24.08
2018-08-07T06:54:07.761Z,24.05
2018-08-07T06:55:07.741Z,24.09
2018-08-07T06:56:07.728Z,24.10
2018-08-07T06:57:07.721Z,24.20
2018-08-07T06:58:07.704Z,24.18
2018-08-07T06:59:07.689Z,24.21
2018-08-07T07:00:07.681Z,24.37
2018-08-07T07:01:07.662Z,24.35
2018-08-07T07:02:07.652Z,24.40
2018-08-07T07:03:07.636Z,24.47
2018-08-07T07:04:07.625Z,24.50
2018-08-07T07:05:07.615Z,24.60
2018-08-07T07:06:07.604Z,24.65
2018-08-07T07:07:07.590Z,24.69
2018-08-07T07:08:07.575Z,24.69
2018-08-07T07:09:07.565Z,24.76
2018-08-07T07:10:07.551Z,24.81
2018-08-07T07:11:07.536Z,24.81
2018-08-07T07:12:07.522Z,24.80
2018-08-07T07:13:07.511Z,24.93
2018-08-07T07:14:07.497Z,24.98
2018-08-07T07:15:07.484Z,24.96
2018-08-07T07:16:07.475Z,25.10
2018-08-07T07:17:07.460Z,25.08
2018-08-07T07:18:07.449Z,25.20
2018-08-07T07:19:07.433Z,25.30
2018-08-07T07:20:07.431Z,25.35
2018-08-07T07:21:07.414Z,25.43
2018-08-07T07:22:07.397Z,25.47
2018-08-07T07:23:07.387Z,25.57
2018-08-07T07:24:07.372Z,25.60
2018-08-07T07:25:07.357Z,25.60
2018-08-07T07:26:07.346Z,25.64
2018-08-07T07:27:07.334Z,25.70
2018-08-07T07:28:07.321Z,25.75
2018-08-07T07:29:07.315Z,25.77
2018-08-07T07:30:07.299Z,25.76
2018-08-07T07:31:07.283Z,25.87
2018-08-07T07:32:07.276Z,25.90
2018-08-07T07:33:07.257Z,25.87
2018-08-07T07:34:07.259Z,25.85
2018-08-07T07:35:07.237Z,25.97
2018-08-07T07:36:07.229Z,25.99
2018-08-07T07:37:07.211Z,26.12
2018-08-07T07:38:07.199Z,26.20
2018-08-07T07:39:07.190Z,26.13
2018-08-07T07:40:07.174Z,26.26
2018-08-07T07:41:07.166Z,26.30
2018-08-07T07:42:07.154Z,26.37
2018-08-07T07:43:07.138Z,26.43
2018-08-07T07:44:07.127Z,26.47
2018-08-07T07:45:07.112Z,26.52
2018-08-07T07:46:07.120Z,26.57
2018-08-07T07:47:07.190Z,26.63
2018-08-07T07:48:07.087Z,26.69
2018-08-07T07:49:07.063Z,26.69
2018-08-07T07:50:07.050Z,26.72
2018-08-07T07:51:07.039Z,26.81
2018-08-07T07:52:07.028Z,26.84
2018-08-07T07:53:07.014Z,26.88
2018-08-07T07:54:07.065Z,27.02
2018-08-07T07:55:06.992Z,27.04
2018-08-07T07:56:06.980Z,27.22
2018-08-07T07:57:06.968Z,27.29
2018-08-07T07:58:06.956Z,27.28
2018-08-07T07:59:06.950Z,27.22
2018-08-07T08:00:06.935Z,27.39
2018-08-07T08:01:06.922Z,27.36
2018-08-07T08:02:06.908Z,27.49
2018-08-07T08:03:06.899Z,27.60
2018-08-07T08:04:06.887Z,27.65
2018-08-07T08:05:06.922Z,27.67
2018-08-07T08:06:06.932Z,27.75
2018-08-07T08:07:06.855Z,27.81
2018-08-07T08:08:06.843Z,27.81
2018-08-07T08:09:06.837Z,27.78
2018-08-07T08:10:06.820Z,27.90
2018-08-07T08:11:06.832Z,28.03
2018-08-07T08:12:06.800Z,28.04
2018-08-07T08:13:06.784Z,28.12
2018-08-07T08:14:06.775Z,28.19
2018-08-07T08:15:06.764Z,28.30
2018-08-07T08:16:06.757Z,28.33
2018-08-07T08:17:06.740Z,28.34
2018-08-07T08:18:06.731Z,28.52
2018-08-07T08:19:06.720Z,28.52
2018-08-07T08:20:06.712Z,28.58
2018-08-07T08:21:06.697Z,28.59
2018-08-07T08:22:06.694Z,28.62
2018-08-07T08:23:06.674Z,28.64
2018-08-07T08:24:06.665Z,28.68
2018-08-07T08:25:06.653Z,28.76
2018-08-07T08:26:06.644Z,28.83
2018-08-07T08:27:06.631Z,28.81
2018-08-07T08:28:06.626Z,29.00
2018-08-07T08:29:06.653Z,29.00
2018-08-07T08:30:06.735Z,28.93
2018-08-07T08:31:06.594Z,29.05
2018-08-07T08:32:06.578Z,29.09
2018-08-07T08:33:06.579Z,29.12
2018-08-07T08:34:06.556Z,29.15
2018-08-07T08:35:06.613Z,29.16
2018-08-07T08:36:06.536Z,29.21
2018-08-07T08:37:06.525Z,29.31
2018-08-07T08:38:06.514Z,29.33
2018-08-07T08:39:06.503Z,29.37
2018-08-07T08:40:06.493Z,29.55
2018-08-07T08:41:06.492Z,29.63
2018-08-07T08:42:06.480Z,29.71
2018-08-07T08:43:06.471Z,29.63
2018-08-07T08:44:06.451Z,29.73
2018-08-07T08:45:06.440Z,29.82
2018-08-07T08:46:06.430Z,29.83
2018-08-07T08:47:06.420Z,29.87
2018-08-07T08:48:06.412Z,29.92
2018-08-07T08:49:06.401Z,29.98
2018-08-07T08:50:06.398Z,30.02
2018-08-07T08:51:06.385Z,30.13
2018-08-07T08:52:06.371Z,30.10
2018-08-07T08:53:06.370Z,30.20
2018-08-07T08:54:06.377Z,30.22
2018-08-07T08:55:06.345Z,30.17
2018-08-07T08:56:06.331Z,30.27
2018-08-07T08:57:06.323Z,30.32
2018-08-07T08:58:06.309Z,30.43
2018-08-07T08:59:06.303Z,30.46
2018-08-07T09:00:06.292Z,30.49
2018-08-07T09:01:06.281Z,30.61
2018-08-07T09:02:06.270Z,30.58
2018-08-07T09:03:06.260Z,30.64
2018-08-07T09:04:06.252Z,30.64
2018-08-07T09:05:06.246Z,30.62
2018-08-07T09:06:06.233Z,30.67
2018-08-07T09:07:06.221Z,30.83
2018-08-07T09:08:06.228Z,30.65
2018-08-07T09:09:06.200Z,30.72
2018-08-07T09:10:06.193Z,30.80
2018-08-07T09:11:06.184Z,30.79
2018-08-07T09:12:06.178Z,30.77
2018-08-07T09:13:06.163Z,30.80
2018-08-07T09:14:06.152Z,30.94
2018-08-07T09:15:06.144Z,30.89
2018-08-07T09:16:06.139Z,30.95
2018-08-07T09:17:06.130Z,30.98
2018-08-07T09:18:06.139Z,31.07
2018-08-07T09:19:06.106Z,31.16
2018-08-07T09:20:06.101Z,31.23
2018-08-07T09:21:06.091Z,31.25
2018-08-07T09:22:06.084Z,31.26
2018-08-07T09:23:06.077Z,31.34
2018-08-07T09:24:06.062Z,31.36
2018-08-07T09:25:06.055Z,31.34
2018-08-07T09:26:06.094Z,31.28
2018-08-07T09:27:06.032Z,31.36
2018-08-07T09:28:06.023Z,31.53
2018-08-07T09:29:06.047Z,31.50
2018-08-07T09:30:06.010Z,31.62
2018-08-07T09:31:06.001Z,31.62
2018-08-07T09:32:05.989Z,31.72
2018-08-07T09:33:06.086Z,31.73
2018-08-07T09:34:05.975Z,31.85
2018-08-07T09:35:05.961Z,31.85
2018-08-07T09:36:05.949Z,31.92
2018-08-07T09:37:05.939Z,31.92
2018-08-07T09:38:05.940Z,31.73
2018-08-07T09:39:05.920Z,31.76
2018-08-07T09:40:05.921Z,31.84
2018-08-07T09:41:05.904Z,31.78
2018-08-07T09:42:05.905Z,31.93
2018-08-07T09:43:05.885Z,32.07
2018-08-07T09:44:05.877Z,32.15
2018-08-07T09:45:05.868Z,32.23
2018-08-07T09:46:05.875Z,32.22
2018-08-07T09:47:05.849Z,32.37
2018-08-07T09:48:05.845Z,32.52
2018-08-07T09:49:05.835Z,32.52
2018-08-07T09:50:05.821Z,32.67
2018-08-07T09:51:05.815Z,32.63
2018-08-07T09:52:05.815Z,32.67
2018-08-07T09:53:05.805Z,32.70
2018-08-07T09:54:05.788Z,32.72
2018-08-07T09:55:05.782Z,32.77
2018-08-07T09:56:05.773Z,32.62
2018-08-07T09:57:05.769Z,32.57
2018-08-07T09:58:05.751Z,32.43
2018-08-07T09:59:05.744Z,32.41
2018-08-07T10:00:05.759Z,32.28
2018-08-07T10:01:05.728Z,32.29
2018-08-07T10:02:05.720Z,32.32
2018-08-07T10:03:05.708Z,32.37
2018-08-07T10:04:05.703Z,32.48
2018-08-07T10:05:05.759Z,32.45
2018-08-07T10:06:05.685Z,32.43
2018-08-07T10:07:05.676Z,32.30
2018-08-07T10:08:05.666Z,32.37
2018-08-07T10:09:05.655Z,32.33
2018-08-07T10:10:05.648Z,32.45
2018-08-07T10:11:05.641Z,32.51
2018-08-07T10:12:05.639Z,32.65
2018-08-07T10:13:05.622Z,32.79
2018-08-07T10:14:05.617Z,32.82
2018-08-07T10:15:05.606Z,32.82
2018-08-07T10:16:05.598Z,32.87
2018-08-07T10:17:05.594Z,32.84
2018-08-07T10:18:05.581Z,32.82
2018-08-07T10:19:05.574Z,32.88
2018-08-07T10:20:05.565Z,33.03
2018-08-07T10:21:05.555Z,33.12
2018-08-07T10:22:05.549Z,33.21
2018-08-07T10:23:05.538Z,33.29
2018-08-07T10:24:05.542Z,33.41
2018-08-07T10:25:05.529Z,33.26
2018-08-07T10:26:05.515Z,33.28
2018-08-07T10:27:05.507Z,33.37
2018-08-07T10:28:05.499Z,33.31
2018-08-07T10:29:05.490Z,33.12
2018-08-07T10:30:05.487Z,33.18
2018-08-07T10:31:05.478Z,33.18
2018-08-07T10:32:05.475Z,33.16
2018-08-07T10:33:05.456Z,33.32
2018-08-07T10:34:05.449Z,33.32
2018-08-07T10:35:05.472Z,33.22
2018-08-07T10:36:05.432Z,33.23
2018-08-07T10:37:05.427Z,33.39
2018-08-07T10:38:05.434Z,33.39
2018-08-07T10:39:05.411Z,33.53
2018-08-07T10:40:05.404Z,33.49
2018-08-07T10:41:05.486Z,33.51
2018-08-07T10:42:05.384Z,33.39
2018-08-07T10:43:05.454Z,33.44
2018-08-07T10:44:05.414Z,33.56
2018-08-07T10:45:05.361Z,33.66
2018-08-07T10:46:05.352Z,33.81
2018-08-07T10:47:05.350Z,33.91
2018-08-07T10:48:05.344Z,34.05
2018-08-07T10:49:05.329Z,34.00
2018-08-07T10:50:05.321Z,34.06
2018-08-07T10:51:05.317Z,34.06
2018-08-07T10:52:05.315Z,34.09
2018-08-07T10:53:05.298Z,34.08
2018-08-07T10:54:05.291Z,33.95
2018-08-07T10:55:05.288Z,34.06
2018-08-07T10:56:05.277Z,34.13
2018-08-07T10:57:05.268Z,33.98
2018-08-07T10:58:05.258Z,33.98
2018-08-07T10:59:05.251Z,34.02
2018-08-07T11:00:05.253Z,34.02
2018-08-07T11:01:05.238Z,34.03
2018-08-07T11:02:05.233Z,34.08
2018-08-07T11:03:05.223Z,34.22
2018-08-07T11:04:05.212Z,34.32
2018-08-07T11:05:05.208Z,34.42
2018-08-07T11:06:05.199Z,34.49
2018-08-07T11:07:05.189Z,34.49
2018-08-07T11:08:05.195Z,34.59
2018-08-07T11:09:05.173Z,34.53
2018-08-07T11:10:05.167Z,34.49
2018-08-07T11:11:05.158Z,34.46
2018-08-07T11:12:05.151Z,34.37
2018-08-07T11:13:05.143Z,34.35
2018-08-07T11:14:05.135Z,34.28
2018-08-07T11:15:05.135Z,34.39
2018-08-07T11:16:05.120Z,34.50
2018-08-07T11:17:05.124Z,34.65
2018-08-07T11:18:05.105Z,34.66
2018-08-07T11:19:05.114Z,34.59
2018-08-07T11:20:05.098Z,34.65
2018-08-07T11:21:05.082Z,34.61
2018-08-07T11:22:05.079Z,34.73
2018-08-07T11:23:05.070Z,34.78
2018-08-07T11:24:05.061Z,34.96
2018-08-07T11:25:05.055Z,34.94
2018-08-07T11:26:05.051Z,34.99
2018-08-07T11:27:05.047Z,35.07
2018-08-07T11:28:05.044Z,35.09
2018-08-07T11:29:05.024Z,34.97
2018-08-07T11:30:05.056Z,34.92
2018-08-07T11:31:05.015Z,34.65
2018-08-07T11:32:05.001Z,34.62
2018-08-07T11:33:04.996Z,34.59
2018-08-07T11:34:04.986Z,34.47
2018-08-07T11:35:04.982Z,34.47
2018-08-07T11:36:05.026Z,34.31
2018-08-07T11:37:04.969Z,34.34
2018-08-07T11:38:04.955Z,34.31
2018-08-07T11:39:04.947Z,34.37
2018-08-07T11:40:04.959Z,34.52
2018-08-07T11:41:04.939Z,34.59
2018-08-07T11:42:04.930Z,34.59
2018-08-07T11:43:04.922Z,34.72
2018-08-07T11:44:04.915Z,34.82
2018-08-07T11:45:04.909Z,35.03
2018-08-07T11:46:04.905Z,35.11
2018-08-07T11:47:04.893Z,35.22
2018-08-07T11:48:05.004Z,35.36
2018-08-07T11:49:04.877Z,35.37
2018-08-07T11:50:04.871Z,35.45
2018-08-07T11:51:04.863Z,35.52
2018-08-07T11:52:04.854Z,35.58
2018-08-07T11:53:04.848Z,35.44
2018-08-07T11:54:04.842Z,35.36
2018-08-07T11:55:04.835Z,35.43
2018-08-07T11:56:04.826Z,35.38
2018-08-07T11:57:04.819Z,35.28
2018-08-07T11:58:04.817Z,35.15
2018-08-07T11:59:04.804Z,35.23
2018-08-07T12:00:04.798Z,35.15
2018-08-07T12:01:04.801Z,35.26
2018-08-07T12:02:04.784Z,35.22
2018-08-07T12:03:04.780Z,35.23
2018-08-07T12:04:04.773Z,35.34
2018-08-07T12:05:04.762Z,35.40
2018-08-07T12:06:04.757Z,35.41
2018-08-07T12:07:04.749Z,35.37
2018-08-07T12:08:04.778Z,35.36
2018-08-07T12:09:04.734Z,35.23
2018-08-07T12:10:04.725Z,35.34
2018-08-07T12:11:04.719Z,35.36
2018-08-07T12:12:04.716Z,35.38
2018-08-07T12:13:04.705Z,35.37
2018-08-07T12:14:04.697Z,35.53
2018-08-07T12:15:04.691Z,35.55
2018-08-07T12:16:04.684Z,35.68
2018-08-07T12:17:04.678Z,35.58
2018-08-07T12:18:04.669Z,35.63
2018-08-07T12:19:04.660Z,35.56
2018-08-07T12:20:04.653Z,35.22
2018-08-07T12:21:04.644Z,35.18
2018-08-07T12:22:04.638Z,35.19
2018-08-07T12:23:04.633Z,35.29
2018-08-07T12:24:04.624Z,35.48
2018-08-07T12:25:04.633Z,35.56
2018-08-07T12:26:04.611Z,35.58
2018-08-07T12:27:04.614Z,35.65
2018-08-07T12:28:04.597Z,35.63
2018-08-07T12:29:04.595Z,35.72
2018-08-07T12:30:04.583Z,35.84
2018-08-07T12:31:04.573Z,35.81
2018-08-07T12:32:04.571Z,35.85
2018-08-07T12:33:04.559Z,35.84
2018-08-07T12:34:04.556Z,35.81
2018-08-07T12:35:04.588Z,35.96
2018-08-07T12:36:04.548Z,35.90
2018-08-07T12:37:04.533Z,35.90
2018-08-07T12:38:04.525Z,35.87
2018-08-07T12:39:04.532Z,35.82
2018-08-07T12:40:04.511Z,35.60
2018-08-07T12:41:04.523Z,35.71
2018-08-07T12:42:04.498Z,35.62
2018-08-07T12:43:04.490Z,35.66
2018-08-07T12:44:04.530Z,35.63
2018-08-07T12:45:04.479Z,35.71
2018-08-07T12:46:04.470Z,35.71
2018-08-07T12:47:04.462Z,35.81
2018-08-07T12:48:04.457Z,35.96
2018-08-07T12:49:04.455Z,36.00
2018-08-07T12:50:04.447Z,35.93
2018-08-07T12:51:04.436Z,35.93
2018-08-07T12:52:04.431Z,35.81